Map

Track Data

SID SEASON NUMBER BASIN SUBBASIN NAME ISO_TIME NATURE LAT LON WMO_WIND WMO_PRES WMO_AGENCY TRACK_TYPE DIST2LAND LANDFALL IFLAG USA_AGENCY USA_ATCF_ID USA_LAT USA_LON USA_RECORD USA_STATUS USA_WIND USA_PRES USA_SSHS USA_R34_NE USA_R34_SE USA_R34_SW USA_R34_NW USA_R50_NE USA_R50_SE USA_R50_SW USA_R50_NW USA_R64_NE USA_R64_SE USA_R64_SW USA_R64_NW USA_POCI USA_ROCI USA_RMW USA_EYE TOKYO_LAT TOKYO_LON TOKYO_GRADE TOKYO_WIND TOKYO_PRES TOKYO_R50_DIR TOKYO_R50_LONG TOKYO_R50_SHORT TOKYO_R30_DIR TOKYO_R30_LONG TOKYO_R30_SHORT TOKYO_LAND CMA_LAT CMA_LON CMA_CAT CMA_WIND CMA_PRES HKO_LAT HKO_LON HKO_CAT HKO_WIND HKO_PRES NEWDELHI_LAT NEWDELHI_LON NEWDELHI_GRADE NEWDELHI_WIND NEWDELHI_PRES NEWDELHI_CI NEWDELHI_DP NEWDELHI_POCI REUNION_LAT REUNION_LON REUNION_TYPE REUNION_WIND REUNION_PRES REUNION_TNUM REUNION_CI REUNION_RMW REUNION_R34_NE REUNION_R34_SE REUNION_R34_SW REUNION_R34_NW REUNION_R50_NE REUNION_R50_SE REUNION_R50_SW REUNION_R50_NW REUNION_R64_NE REUNION_R64_SE REUNION_R64_SW REUNION_R64_NW BOM_LAT BOM_LON BOM_TYPE BOM_WIND BOM_PRES BOM_TNUM BOM_CI BOM_RMW BOM_R34_NE BOM_R34_SE BOM_R34_SW BOM_R34_NW BOM_R50_NE BOM_R50_SE BOM_R50_SW BOM_R50_NW BOM_R64_NE BOM_R64_SE BOM_R64_SW BOM_R64_NW BOM_ROCI BOM_POCI BOM_EYE BOM_POS_METHOD BOM_PRES_METHOD NADI_LAT NADI_LON NADI_CAT NADI_WIND NADI_PRES WELLINGTON_LAT WELLINGTON_LON WELLINGTON_WIND WELLINGTON_PRES DS824_LAT DS824_LON DS824_STAGE DS824_WIND DS824_PRES TD9636_LAT TD9636_LON TD9636_STAGE TD9636_WIND TD9636_PRES TD9635_LAT TD9635_LON TD9635_WIND TD9635_PRES TD9635_ROCI NEUMANN_LAT NEUMANN_LON NEUMANN_CLASS NEUMANN_WIND NEUMANN_PRES MLC_LAT MLC_LON MLC_CLASS MLC_WIND MLC_PRES USA_GUST BOM_GUST BOM_GUST_PER REUNION_GUST REUNION_GUST_PER USA_SEAHGT USA_SEARAD_NE USA_SEARAD_SE USA_SEARAD_SW USA_SEARAD_NW STORM_SPEED STORM_DIR
1965233N32308 1965 76 NA NA ANNA 1965-08-21 06:00:00 TS 32.4000 -52.3000 35 hurdat_atl main 1582 1548 O_____________ hurdat_atl AL021965 32.4000 -52.3000 TS 35 0 6 355
1965233N32308 1965 76 NA NA ANNA 1965-08-21 09:00:00 TS 32.6975 -52.3248 main 1548 1515 P_____________ AL021965 32.6975 -52.3248 TS 35 0 6 1
1965233N32308 1965 76 NA NA ANNA 1965-08-21 12:00:00 TS 33.0000 -52.3000 35 hurdat_atl main 1515 1482 O_____________ hurdat_atl AL021965 33.0000 -52.3000 TS 35 0 6 10
1965233N32308 1965 76 NA NA ANNA 1965-08-21 15:00:00 TS 33.3075 -52.2002 main 1482 1449 P_____________ AL021965 33.3075 -52.2002 TS 35 0 6 16
1965233N32308 1965 76 NA NA ANNA 1965-08-21 18:00:00 TS 33.6000 -52.1000 35 hurdat_atl main 1449 1427 O_____________ hurdat_atl AL021965 33.6000 -52.1000 TS 35 0 6 10
1965233N32308 1965 76 NA NA ANNA 1965-08-21 21:00:00 TS 33.8575 -52.0849 main 1416 1394 P_____________ AL021965 33.8575 -52.0849 TS 35 0 5 2
1965233N32308 1965 76 NA NA ANNA 1965-08-22 00:00:00 TS 34.1000 -52.1000 35 hurdat_atl main 1394 1371 O_____________ hurdat_atl AL021965 34.1000 -52.1000 TS 35 0 5 359
1965233N32308 1965 76 NA NA ANNA 1965-08-22 03:00:00 TS 34.3500 -52.0926 main 1371 1338 P_____________ AL021965 34.3500 -52.0926 TS 35 0 5 358
1965233N32308 1965 76 NA NA ANNA 1965-08-22 06:00:00 TS 34.6000 -52.1000 35 hurdat_atl main 1338 1316 O_____________ hurdat_atl AL021965 34.6000 -52.1000 TS 35 0 5 355
1965233N32308 1965 76 NA NA ANNA 1965-08-22 09:00:00 TS 34.8500 -52.1499 main 1305 1282 P_____________ AL021965 34.8500 -52.1499 TS 35 0 5 351
1965233N32308 1965 76 NA NA ANNA 1965-08-22 12:00:00 TS 35.1000 -52.2000 35 hurdat_atl main 1282 1259 O_____________ hurdat_atl AL021965 35.1000 -52.2000 TS 35 0 5 353
1965233N32308 1965 76 NA NA ANNA 1965-08-22 15:00:00 TS 35.3575 -52.2150 main 1248 1226 P_____________ AL021965 35.3575 -52.2150 TS 35 0 5 2
1965233N32308 1965 76 NA NA ANNA 1965-08-22 18:00:00 TS 35.6000 -52.2000 35 hurdat_atl main 1226 1204 O_____________ hurdat_atl AL021965 35.6000 -52.2000 TS 35 0 5 4
1965233N32308 1965 76 NA NA ANNA 1965-08-22 21:00:00 TS 35.8075 -52.1575 main 1204 1182 P_____________ AL021965 35.8075 -52.1575 TS 40 0 4 11
1965233N32308 1965 76 NA NA ANNA 1965-08-23 00:00:00 TS 36.0000 -52.1000 45 hurdat_atl main 1182 1160 O_____________ hurdat_atl AL021965 36.0000 -52.1000 TS 45 0 4 14
1965233N32308 1965 76 NA NA ANNA 1965-08-23 03:00:00 TS 36.1925 -52.0425 main 1161 1139 P_____________ AL021965 36.1925 -52.0425 TS 50 0 4 11
1965233N32308 1965 76 NA NA ANNA 1965-08-23 06:00:00 TS 36.4000 -52.0000 55 hurdat_atl main 1139 1116 O_____________ hurdat_atl AL021965 36.4000 -52.0000 TS 55 0 4 5
1965233N32308 1965 76 NA NA ANNA 1965-08-23 09:00:00 TS 36.6350 -51.9924 main 1116 1083 P_____________ AL021965 36.6350 -51.9924 TS 60 0 5 2
1965233N32308 1965 76 NA NA ANNA 1965-08-23 12:00:00 TS 36.9000 -52.0000 65 hurdat_atl main 1083 1050 O_____________ hurdat_atl AL021965 36.9000 -52.0000 HU 65 1 5 0
1965233N32308 1965 76 NA NA ANNA 1965-08-23 15:00:00 TS 37.1775 -52.0148 main 1050 1016 P_____________ AL021965 37.1775 -52.0148 HU 70 1 6 1
1965233N32308 1965 76 NA NA ANNA 1965-08-23 18:00:00 TS 37.5000 -52.0000 75 hurdat_atl main 1016 973 O_____________ hurdat_atl AL021965 37.5000 -52.0000 HU 75 1 7 5
1965233N32308 1965 76 NA NA ANNA 1965-08-23 21:00:00 TS 37.8924 -51.9373 main 973 930 P_____________ AL021965 37.8924 -51.9373 HU 80 1 8 11
1965233N32308 1965 76 NA NA ANNA 1965-08-24 00:00:00 TS 38.3000 -51.8000 85 hurdat_atl main 930 897 O_____________ hurdat_atl AL021965 38.3000 -51.8000 HU 85 2 8 19
1965233N32308 1965 76 NA NA ANNA 1965-08-24 03:00:00 TS 38.6497 -51.6093 main 899 859 P_____________ AL021965 38.6497 -51.6093 HU 87 2 8 29
1965233N32308 1965 76 NA NA ANNA 1965-08-24 06:00:00 TS 39.0000 -51.3000 90 hurdat_atl main 859 831 O_____________ hurdat_atl AL021965 39.0000 -51.3000 HU 90 2 9 38
1965233N32308 1965 76 NA NA ANNA 1965-08-24 09:00:00 TS 39.3539 -50.9099 main 821 791 P_____________ AL021965 39.3539 -50.9099 HU 90 2 11 44
1965233N32308 1965 76 NA NA ANNA 1965-08-24 12:00:00 TS 39.8000 -50.3000 90 hurdat_atl main 791 757 O_____________ hurdat_atl AL021965 39.8000 -50.3000 HU 90 2 15 48
1965233N32308 1965 76 NA NA ANNA 1965-08-24 15:00:00 TS 40.3661 -49.4459 main 753 721 P_____________ AL021965 40.3661 -49.4459 HU 90 2 20 50
1965233N32308 1965 76 NA NA ANNA 1965-08-24 18:00:00 TS 41.1000 -48.3000 90 hurdat_atl main 725 711 O_____________ hurdat_atl AL021965 41.1000 -48.3000 HU 90 2 25 50
1965233N32308 1965 76 NA NA ANNA 1965-08-24 21:00:00 TS 41.9906 -46.8819 main 714 714 P_____________ AL021965 41.9906 -46.8819 HU 87 2 29 50
1965233N32308 1965 76 NA NA ANNA 1965-08-25 00:00:00 TS 43.0000 -45.3000 85 hurdat_atl main 736 736 O_____________ hurdat_atl AL021965 43.0000 -45.3000 HU 85 2 30 48
1965233N32308 1965 76 NA NA ANNA 1965-08-25 03:00:00 TS 44.0376 -43.8249 main 779 776 P_____________ AL021965 44.0376 -43.8249 HU 82 1 31 47
1965233N32308 1965 76 NA NA ANNA 1965-08-25 06:00:00 TS 45.1000 -42.2000 80 hurdat_atl main 838 838 O_____________ hurdat_atl AL021965 45.1000 -42.2000 HU 80 1 32 51
1965233N32308 1965 76 NA NA ANNA 1965-08-25 09:00:00 TS 46.1053 -40.2628 main 944 944 P_____________ AL021965 46.1053 -40.2628 HU 77 1 35 55
1965233N32308 1965 76 NA NA ANNA 1965-08-25 12:00:00 TS 47.1000 -38.1000 75 hurdat_atl main 1087 1087 O_____________ hurdat_atl AL021965 47.1000 -38.1000 HU 75 1 36 56
1965233N32308 1965 76 NA NA ANNA 1965-08-25 15:00:00 TS 48.1018 -35.8454 main 1248 1248 P_____________ AL021965 48.1018 -35.8454 HU 70 1 37 57
1965233N32308 1965 76 NA NA ANNA 1965-08-25 18:00:00 TS 49.1000 -33.4000 65 hurdat_atl main 1365 1350 O_____________ hurdat_atl AL021965 49.1000 -33.4000 HU 65 1 38 59
1965233N32308 1965 76 NA NA ANNA 1965-08-25 21:00:00 TS 50.0340 -30.8661 main 1355 1216 P_____________ AL021965 50.0340 -30.8661 HU 60 0 40 62
1965233N32308 1965 76 NA NA ANNA 1965-08-26 00:00:00 ET 51.0000 -27.9000 55 hurdat_atl main 1200 930 O_____________ hurdat_atl AL021965 51.0000 -27.9000 EX 55 -4 48 66
1965233N32308 1965 76 NA NA ANNA 1965-08-26 03:00:00 ET 52.0120 -23.9584 main 917 658 P_____________ AL021965 52.0120 -23.9584 EX 52 -4 52 68
1965233N32308 1965 76 NA NA ANNA 1965-08-26 06:00:00 ET 53.0000 -20.0000 50 hurdat_atl main 646 455 O_____________ hurdat_atl AL021965 53.0000 -20.0000 EX 50 -4 46 65
1965233N32308 1965 76 NA NA ANNA 1965-08-26 09:00:00 ET 53.9922 -16.9609 main 447 298 P_____________ AL021965 53.9922 -16.9609 EX 47 -4 38 58
1965233N32308 1965 76 NA NA ANNA 1965-08-26 12:00:00 ET 55.0000 -14.5000 45 hurdat_atl main 295 O_____________ hurdat_atl AL021965 55.0000 -14.5000 EX 45 -4 35 54

About IBTrACS Database

This database is a web-friendly format of International Best Track Archive for Climate Stewardship (IBTrACS), a global best track data archive curated by NOAA dating back to 1842.

Updated: 2021-10-25